sensor_id;sensor_type;location;lat;lon;timestamp;temperature;humidity
46676;DHT22;32412;51.478;5.694;2023-11-21T07:26:50;7.20;99.90
46676;DHT22;32412;51.478;5.694;2023-11-21T07:29:15;7.20;99.90
46676;DHT22;32412;51.478;5.694;2023-11-21T07:35:07;7.30;99.90
46676;DHT22;32412;51.478;5.694;2023-11-21T07:37:33;7.30;99.90
46676;DHT22;32412;51.478;5.694;2023-11-21T07:40:23;7.30;99.90
46676;DHT22;32412;51.478;5.694;2023-11-21T07:42:49;7.30;99.90
46676;DHT22;32412;51.478;5.694;2023-11-21T07:45:15;7.30;99.90
46676;DHT22;32412;51.478;5.694;2023-11-21T07:58:35;7.40;99.90
46676;DHT22;32412;51.478;5.694;2023-11-21T08:04:28;7.40;99.90
46676;DHT22;32412;51.478;5.694;2023-11-21T08:06:59;7.40;99.90
46676;DHT22;32412;51.478;5.694;2023-11-21T08:09:36;7.40;99.90
46676;DHT22;32412;51.478;5.694;2023-11-21T08:12:02;7.50;99.90
46676;DHT22;32412;51.478;5.694;2023-11-21T08:14:31;7.50;99.90
46676;DHT22;32412;51.478;5.694;2023-11-21T08:17:23;7.60;99.90
46676;DHT22;32412;51.478;5.694;2023-11-21T08:19:50;7.60;99.90
46676;DHT22;32412;51.478;5.694;2023-11-21T08:28:40;7.70;99.90
46676;DHT22;32412;51.478;5.694;2023-11-21T08:31:06;7.70;99.90
46676;DHT22;32412;51.478;5.694;2023-11-21T08:33:32;7.70;99.90
46676;DHT22;32412;51.478;5.694;2023-11-21T08:35:57;7.70;99.90
46676;DHT22;32412;51.478;5.694;2023-11-21T08:38:23;7.70;99.90
46676;DHT22;32412;51.478;5.694;2023-11-21T08:40:50;7.80;99.90
46676;DHT22;32412;51.478;5.694;2023-11-21T08:43:16;7.90;99.90
46676;DHT22;32412;51.478;5.694;2023-11-21T08:45:45;7.90;99.90
46676;DHT22;32412;51.478;5.694;2023-11-21T08:48:11;8.00;99.90
46676;DHT22;32412;51.478;5.694;2023-11-21T08:50:39;8.10;99.90
46676;DHT22;32412;51.478;5.694;2023-11-21T08:53:05;8.10;99.90
46676;DHT22;32412;51.478;5.694;2023-11-21T08:55:31;8.10;99.90
46676;DHT22;32412;51.478;5.694;2023-11-21T08:57:57;8.10;99.90
46676;DHT22;32412;51.478;5.694;2023-11-21T09:00:24;8.20;99.90
46676;DHT22;32412;51.478;5.694;2023-11-21T09:02:50;8.10;99.90
46676;DHT22;32412;51.478;5.694;2023-11-21T09:05:15;8.10;99.90
46676;DHT22;32412;51.478;5.694;2023-11-21T09:07:42;8.10;99.90
46676;DHT22;32412;51.478;5.694;2023-11-21T09:10:08;8.10;99.90
46676;DHT22;32412;51.478;5.694;2023-11-21T09:12:37;8.10;99.90
46676;DHT22;32412;51.478;5.694;2023-11-21T09:15:05;8.20;99.90
46676;DHT22;32412;51.478;5.694;2023-11-21T09:17:31;8.20;99.90
46676;DHT22;32412;51.478;5.694;2023-11-21T09:19:57;8.20;99.90
46676;DHT22;32412;51.478;5.694;2023-11-21T09:22:23;8.20;99.90
46676;DHT22;32412;51.478;5.694;2023-11-21T09:24:53;8.10;99.90
46676;DHT22;32412;51.478;5.694;2023-11-21T09:27:19;8.20;99.90
46676;DHT22;32412;51.478;5.694;2023-11-21T09:29:47;8.30;99.90
46676;DHT22;32412;51.478;5.694;2023-11-21T09:32:14;8.30;99.90
46676;DHT22;32412;51.478;5.694;2023-11-21T09:34:44;8.40;99.90
46676;DHT22;32412;51.478;5.694;2023-11-21T09:37:09;8.40;99.90
46676;DHT22;32412;51.478;5.694;2023-11-21T09:39:35;8.50;99.90
46676;DHT22;32412;51.478;5.694;2023-11-21T09:42:19;8.60;99.90
46676;DHT22;32412;51.478;5.694;2023-11-21T09:45:05;8.60;99.90
46676;DHT22;32412;51.478;5.694;2023-11-21T09:47:38;8.70;99.90
46676;DHT22;32412;51.478;5.694;2023-11-21T09:50:05;8.60;99.90
46676;DHT22;32412;51.478;5.694;2023-11-21T09:52:55;8.70;99.90
46676;DHT22;32412;51.478;5.694;2023-11-21T09:55:25;8.70;99.90
46676;DHT22;32412;51.478;5.694;2023-11-21T09:57:53;8.80;99.90
46676;DHT22;32412;51.478;5.694;2023-11-21T10:00:22;8.80;99.90
46676;DHT22;32412;51.478;5.694;2023-11-21T10:02:49;8.90;99.90
46676;DHT22;32412;51.478;5.694;2023-11-21T10:05:15;8.90;99.90
46676;DHT22;32412;51.478;5.694;2023-11-21T10:07:43;8.80;99.90
46676;DHT22;32412;51.478;5.694;2023-11-21T10:10:10;8.80;99.90
46676;DHT22;32412;51.478;5.694;2023-11-21T10:12:37;8.90;99.90
46676;DHT22;32412;51.478;5.694;2023-11-21T10:15:08;9.00;99.90
46676;DHT22;32412;51.478;5.694;2023-11-21T10:17:36;9.00;99.90
46676;DHT22;32412;51.478;5.694;2023-11-21T10:20:10;9.10;99.90
46676;DHT22;32412;51.478;5.694;2023-11-21T10:22:41;9.10;99.90
46676;DHT22;32412;51.478;5.694;2023-11-21T10:25:10;9.20;99.90
46676;DHT22;32412;51.478;5.694;2023-11-21T10:27:39;9.30;99.90
46676;DHT22;32412;51.478;5.694;2023-11-21T10:30:06;9.30;99.90
46676;DHT22;32412;51.478;5.694;2023-11-21T10:32:31;9.30;99.90
46676;DHT22;32412;51.478;5.694;2023-11-21T10:34:59;9.30;99.90
46676;DHT22;32412;51.478;5.694;2023-11-21T10:37:32;9.40;99.90
46676;DHT22;32412;51.478;5.694;2023-11-21T10:39:59;9.40;99.90
46676;DHT22;32412;51.478;5.694;2023-11-21T10:42:24;9.50;99.90
46676;DHT22;32412;51.478;5.694;2023-11-21T10:44:51;9.60;99.90
46676;DHT22;32412;51.478;5.694;2023-11-21T10:47:17;9.60;99.90
46676;DHT22;32412;51.478;5.694;2023-11-21T10:49:47;9.60;99.90
46676;DHT22;32412;51.478;5.694;2023-11-21T10:52:13;9.60;99.90
46676;DHT22;32412;51.478;5.694;2023-11-21T10:54:43;9.60;99.90
46676;DHT22;32412;51.478;5.694;2023-11-21T10:57:10;9.60;99.90
46676;DHT22;32412;51.478;5.694;2023-11-21T10:59:36;9.60;99.90
46676;DHT22;32412;51.478;5.694;2023-11-21T11:02:31;9.70;99.90
46676;DHT22;32412;51.478;5.694;2023-11-21T11:04:58;9.70;99.90
46676;DHT22;32412;51.478;5.694;2023-11-21T11:07:27;9.70;99.90
46676;DHT22;32412;51.478;5.694;2023-11-21T11:09:54;9.70;99.90
46676;DHT22;32412;51.478;5.694;2023-11-21T11:12:20;9.60;99.90
46676;DHT22;32412;51.478;5.694;2023-11-21T11:14:47;9.60;99.90
46676;DHT22;32412;51.478;5.694;2023-11-21T11:17:13;9.70;99.90
46676;DHT22;32412;51.478;5.694;2023-11-21T11:19:39;9.80;99.90
46676;DHT22;32412;51.478;5.694;2023-11-21T11:22:14;9.80;99.90
46676;DHT22;32412;51.478;5.694;2023-11-21T11:27:48;9.90;99.90
46676;DHT22;32412;51.478;5.694;2023-11-21T11:38:21;9.90;99.90
46676;DHT22;32412;51.478;5.694;2023-11-21T11:40:52;9.90;99.90
46676;DHT22;32412;51.478;5.694;2023-11-21T11:43:26;9.90;99.90
46676;DHT22;32412;51.478;5.694;2023-11-21T11:45:55;9.90;99.90
46676;DHT22;32412;51.478;5.694;2023-11-21T11:48:22;9.80;99.90
46676;DHT22;32412;51.478;5.694;2023-11-21T11:51:11;9.70;99.90
46676;DHT22;32412;51.478;5.694;2023-11-21T11:53:40;9.80;99.90
46676;DHT22;32412;51.478;5.694;2023-11-21T11:58:44;9.80;99.90
46676;DHT22;32412;51.478;5.694;2023-11-21T12:01:12;9.80;99.90
46676;DHT22;32412;51.478;5.694;2023-11-21T12:03:37;10.00;99.90
46676;DHT22;32412;51.478;5.694;2023-11-21T12:06:05;10.10;99.90
46676;DHT22;32412;51.478;5.694;2023-11-21T12:08:32;10.20;99.90
46676;DHT22;32412;51.478;5.694;2023-11-21T12:10:58;10.10;99.90
46676;DHT22;32412;51.478;5.694;2023-11-21T12:13:24;10.20;99.90
46676;DHT22;32412;51.478;5.694;2023-11-21T12:15:50;10.20;99.90
46676;DHT22;32412;51.478;5.694;2023-11-21T12:18:16;10.10;99.90
46676;DHT22;32412;51.478;5.694;2023-11-21T12:20:41;10.10;99.90
46676;DHT22;32412;51.478;5.694;2023-11-21T12:23:08;10.00;99.90
46676;DHT22;32412;51.478;5.694;2023-11-21T12:25:39;10.00;99.90
46676;DHT22;32412;51.478;5.694;2023-11-21T12:28:06;9.90;99.90
46676;DHT22;32412;51.478;5.694;2023-11-21T12:30:34;9.90;99.90
46676;DHT22;32412;51.478;5.694;2023-11-21T12:33:04;9.90;99.90
46676;DHT22;32412;51.478;5.694;2023-11-21T12:35:34;9.80;99.90
46676;DHT22;32412;51.478;5.694;2023-11-21T12:38:01;9.80;99.90
46676;DHT22;32412;51.478;5.694;2023-11-21T12:40:28;9.80;99.90
46676;DHT22;32412;51.478;5.694;2023-11-21T12:42:56;9.80;99.90
46676;DHT22;32412;51.478;5.694;2023-11-21T12:45:27;9.80;99.90
46676;DHT22;32412;51.478;5.694;2023-11-21T12:48:02;9.90;99.90
46676;DHT22;32412;51.478;5.694;2023-11-21T12:50:33;9.80;99.90
46676;DHT22;32412;51.478;5.694;2023-11-21T12:53:06;9.80;99.90
46676;DHT22;32412;51.478;5.694;2023-11-21T12:55:34;9.90;99.90
46676;DHT22;32412;51.478;5.694;2023-11-21T12:58:07;9.90;99.90
46676;DHT22;32412;51.478;5.694;2023-11-21T13:00:38;9.90;99.90
46676;DHT22;32412;51.478;5.694;2023-11-21T13:03:05;10.00;99.90
46676;DHT22;32412;51.478;5.694;2023-11-21T13:05:36;9.90;99.90
46676;DHT22;32412;51.478;5.694;2023-11-21T13:08:08;10.00;99.90
46676;DHT22;32412;51.478;5.694;2023-11-21T13:10:39;9.90;99.90
46676;DHT22;32412;51.478;5.694;2023-11-21T13:13:07;9.90;99.90
46676;DHT22;32412;51.478;5.694;2023-11-21T13:16:02;9.90;99.90
46676;DHT22;32412;51.478;5.694;2023-11-21T13:18:31;9.90;99.90
46676;DHT22;32412;51.478;5.694;2023-11-21T13:20:59;9.90;99.90
46676;DHT22;32412;51.478;5.694;2023-11-21T13:23:25;9.90;99.90
46676;DHT22;32412;51.478;5.694;2023-11-21T13:25:52;9.90;99.90
46676;DHT22;32412;51.478;5.694;2023-11-21T13:28:19;10.00;99.90
46676;DHT22;32412;51.478;5.694;2023-11-21T13:30:47;10.00;99.90
46676;DHT22;32412;51.478;5.694;2023-11-21T13:33:14;10.00;99.90
46676;DHT22;32412;51.478;5.694;2023-11-21T13:35:43;10.00;99.90
46676;DHT22;32412;51.478;5.694;2023-11-21T13:38:21;10.00;99.90
46676;DHT22;32412;51.478;5.694;2023-11-21T13:40:51;10.00;99.90
46676;DHT22;32412;51.478;5.694;2023-11-21T13:43:23;10.10;99.90
46676;DHT22;32412;51.478;5.694;2023-11-21T13:45:52;10.00;99.90
46676;DHT22;32412;51.478;5.694;2023-11-21T13:48:34;10.00;99.90
46676;DHT22;32412;51.478;5.694;2023-11-21T13:51:08;10.00;99.90
46676;DHT22;32412;51.478;5.694;2023-11-21T13:53:47;9.90;99.90
46676;DHT22;32412;51.478;5.694;2023-11-21T13:56:21;9.90;99.90
46676;DHT22;32412;51.478;5.694;2023-11-21T13:58:51;9.90;99.90
46676;DHT22;32412;51.478;5.694;2023-11-21T14:01:23;9.90;99.90
46676;DHT22;32412;51.478;5.694;2023-11-21T14:04:17;9.90;99.90
46676;DHT22;32412;51.478;5.694;2023-11-21T14:06:45;9.90;99.90
46676;DHT22;32412;51.478;5.694;2023-11-21T14:09:19;9.90;99.90
46676;DHT22;32412;51.478;5.694;2023-11-21T14:11:51;9.90;99.90
46676;DHT22;32412;51.478;5.694;2023-11-21T14:14:31;10.10;99.90
46676;DHT22;32412;51.478;5.694;2023-11-21T14:16:59;10.00;99.90
46676;DHT22;32412;51.478;5.694;2023-11-21T14:19:28;10.00;99.90
46676;DHT22;32412;51.478;5.694;2023-11-21T14:21:57;10.00;99.90
46676;DHT22;32412;51.478;5.694;2023-11-21T14:24:31;10.00;99.90
46676;DHT22;32412;51.478;5.694;2023-11-21T14:27:02;10.00;99.90
46676;DHT22;32412;51.478;5.694;2023-11-21T14:29:36;10.00;99.90
46676;DHT22;32412;51.478;5.694;2023-11-21T14:32:05;10.00;99.90
46676;DHT22;32412;51.478;5.694;2023-11-21T14:34:31;10.00;99.90
46676;DHT22;32412;51.478;5.694;2023-11-21T14:36:57;10.00;99.90
46676;DHT22;32412;51.478;5.694;2023-11-21T14:39:22;10.00;99.90
46676;DHT22;32412;51.478;5.694;2023-11-21T14:41:52;10.00;99.90
46676;DHT22;32412;51.478;5.694;2023-11-21T14:44:19;10.00;99.90
46676;DHT22;32412;51.478;5.694;2023-11-21T14:46:46;10.00;99.90
46676;DHT22;32412;51.478;5.694;2023-11-21T14:49:13;10.00;99.90
46676;DHT22;32412;51.478;5.694;2023-11-21T14:51:49;10.00;99.90
46676;DHT22;32412;51.478;5.694;2023-11-21T14:54:51;10.00;99.90
46676;DHT22;32412;51.478;5.694;2023-11-21T14:57:30;10.00;99.90
46676;DHT22;32412;51.478;5.694;2023-11-21T14:59:56;10.00;99.90
46676;DHT22;32412;51.478;5.694;2023-11-21T15:02:23;10.00;99.90
46676;DHT22;32412;51.478;5.694;2023-11-21T15:05:09;9.90;99.90
46676;DHT22;32412;51.478;5.694;2023-11-21T15:07:40;9.90;99.90
46676;DHT22;32412;51.478;5.694;2023-11-21T15:10:07;9.80;99.90
46676;DHT22;32412;51.478;5.694;2023-11-21T15:12:40;9.70;99.90
46676;DHT22;32412;51.478;5.694;2023-11-21T15:15:08;9.70;99.90
46676;DHT22;32412;51.478;5.694;2023-11-21T15:17:36;9.60;99.90
46676;DHT22;32412;51.478;5.694;2023-11-21T15:20:03;9.60;99.90
46676;DHT22;32412;51.478;5.694;2023-11-21T15:22:32;9.60;99.90
46676;DHT22;32412;51.478;5.694;2023-11-21T15:24:58;9.60;99.90
46676;DHT22;32412;51.478;5.694;2023-11-21T15:27:24;9.60;99.90
46676;DHT22;32412;51.478;5.694;2023-11-21T15:29:50;9.60;99.90
46676;DHT22;32412;51.478;5.694;2023-11-21T15:32:16;9.60;99.90
46676;DHT22;32412;51.478;5.694;2023-11-21T15:34:41;9.60;99.90
46676;DHT22;32412;51.478;5.694;2023-11-21T15:37:08;9.50;99.90
46676;DHT22;32412;51.478;5.694;2023-11-21T15:39:37;9.50;99.90
46676;DHT22;32412;51.478;5.694;2023-11-21T15:42:04;9.50;99.90
46676;DHT22;32412;51.478;5.694;2023-11-21T15:44:36;9.50;99.90
46676;DHT22;32412;51.478;5.694;2023-11-21T15:47:02;9.50;99.90
46676;DHT22;32412;51.478;5.694;2023-11-21T15:49:31;9.50;99.90
46676;DHT22;32412;51.478;5.694;2023-11-21T15:51:59;9.50;99.90
46676;DHT22;32412;51.478;5.694;2023-11-21T15:54:26;9.50;99.90
46676;DHT22;32412;51.478;5.694;2023-11-21T15:56:55;9.50;99.90
46676;DHT22;32412;51.478;5.694;2023-11-21T15:59:23;9.50;99.90
46676;DHT22;32412;51.478;5.694;2023-11-21T16:01:52;9.50;99.90
46676;DHT22;32412;51.478;5.694;2023-11-21T16:04:17;9.50;99.90
46676;DHT22;32412;51.478;5.694;2023-11-21T16:06:44;9.40;99.90
46676;DHT22;32412;51.478;5.694;2023-11-21T16:09:11;9.40;99.90
46676;DHT22;32412;51.478;5.694;2023-11-21T16:12:03;9.50;99.90
46676;DHT22;32412;51.478;5.694;2023-11-21T16:14:29;9.40;99.90
46676;DHT22;32412;51.478;5.694;2023-11-21T16:17:01;9.40;99.90
46676;DHT22;32412;51.478;5.694;2023-11-21T16:19:27;9.40;99.90
46676;DHT22;32412;51.478;5.694;2023-11-21T16:21:53;9.40;99.90
46676;DHT22;32412;51.478;5.694;2023-11-21T16:24:20;9.30;99.90
46676;DHT22;32412;51.478;5.694;2023-11-21T16:26:46;9.30;99.90
46676;DHT22;32412;51.478;5.694;2023-11-21T16:29:13;9.20;99.90
46676;DHT22;32412;51.478;5.694;2023-11-21T16:31:39;9.20;99.90
46676;DHT22;32412;51.478;5.694;2023-11-21T16:34:13;9.20;99.90
46676;DHT22;32412;51.478;5.694;2023-11-21T16:36:39;9.10;99.90
46676;DHT22;32412;51.478;5.694;2023-11-21T16:39:05;9.10;99.90
46676;DHT22;32412;51.478;5.694;2023-11-21T16:41:35;9.00;99.90
46676;DHT22;32412;51.478;5.694;2023-11-21T16:44:01;9.00;99.90
46676;DHT22;32412;51.478;5.694;2023-11-21T16:46:27;9.00;99.90
46676;DHT22;32412;51.478;5.694;2023-11-21T16:48:55;9.00;99.90
46676;DHT22;32412;51.478;5.694;2023-11-21T16:51:21;9.00;99.90
46676;DHT22;32412;51.478;5.694;2023-11-21T16:53:46;8.90;99.90
46676;DHT22;32412;51.478;5.694;2023-11-21T16:56:12;8.90;99.90
46676;DHT22;32412;51.478;5.694;2023-11-21T16:58:38;8.90;99.90
46676;DHT22;32412;51.478;5.694;2023-11-21T17:01:03;8.90;99.90
46676;DHT22;32412;51.478;5.694;2023-11-21T17:03:29;8.80;99.90
46676;DHT22;32412;51.478;5.694;2023-11-21T17:05:56;8.80;99.90
46676;DHT22;32412;51.478;5.694;2023-11-21T17:08:25;8.80;99.90
46676;DHT22;32412;51.478;5.694;2023-11-21T17:10:51;8.70;99.90
46676;DHT22;32412;51.478;5.694;2023-11-21T17:13:19;8.70;99.90
46676;DHT22;32412;51.478;5.694;2023-11-21T17:15:48;8.60;99.90
46676;DHT22;32412;51.478;5.694;2023-11-21T17:18:14;8.60;99.90
46676;DHT22;32412;51.478;5.694;2023-11-21T17:20:40;8.50;99.90
46676;DHT22;32412;51.478;5.694;2023-11-21T17:23:06;8.50;99.90
46676;DHT22;32412;51.478;5.694;2023-11-21T17:25:35;8.40;99.90
46676;DHT22;32412;51.478;5.694;2023-11-21T17:28:02;8.30;99.90
46676;DHT22;32412;51.478;5.694;2023-11-21T17:30:28;8.30;99.90
46676;DHT22;32412;51.478;5.694;2023-11-21T17:32:57;8.30;99.90
46676;DHT22;32412;51.478;5.694;2023-11-21T17:35:30;8.20;99.90
46676;DHT22;32412;51.478;5.694;2023-11-21T17:41:35;8.10;99.90
46676;DHT22;32412;51.478;5.694;2023-11-21T17:44:07;8.10;99.90
46676;DHT22;32412;51.478;5.694;2023-11-21T17:46:38;8.10;99.90
46676;DHT22;32412;51.478;5.694;2023-11-21T17:52:29;8.00;99.90
46676;DHT22;32412;51.478;5.694;2023-11-21T17:54:55;7.90;99.90
46676;DHT22;32412;51.478;5.694;2023-11-21T17:57:21;7.80;99.90
46676;DHT22;32412;51.478;5.694;2023-11-21T17:59:56;7.90;99.90
46676;DHT22;32412;51.478;5.694;2023-11-21T18:02:21;7.80;99.90
46676;DHT22;32412;51.478;5.694;2023-11-21T18:04:47;7.80;99.90
46676;DHT22;32412;51.478;5.694;2023-11-21T18:07:13;7.80;99.90
46676;DHT22;32412;51.478;5.694;2023-11-21T18:09:46;7.70;99.90
46676;DHT22;32412;51.478;5.694;2023-11-21T18:18:27;7.60;99.90
46676;DHT22;32412;51.478;5.694;2023-11-21T18:20:53;7.60;99.90
46676;DHT22;32412;51.478;5.694;2023-11-21T18:23:19;7.50;99.90
46676;DHT22;32412;51.478;5.694;2023-11-21T18:25:45;7.40;99.90
46676;DHT22;32412;51.478;5.694;2023-11-21T18:28:10;7.30;99.90
46676;DHT22;32412;51.478;5.694;2023-11-21T18:30:36;7.30;99.90
46676;DHT22;32412;51.478;5.694;2023-11-21T18:33:02;7.20;99.90
46676;DHT22;32412;51.478;5.694;2023-11-21T18:35:29;7.10;99.90
46676;DHT22;32412;51.478;5.694;2023-11-21T18:37:56;7.00;99.90
46676;DHT22;32412;51.478;5.694;2023-11-21T18:40:21;7.00;99.90
46676;DHT22;32412;51.478;5.694;2023-11-21T18:42:47;6.90;99.90
46676;DHT22;32412;51.478;5.694;2023-11-21T18:45:15;6.90;99.90
46676;DHT22;32412;51.478;5.694;2023-11-21T18:47:42;6.90;99.90
46676;DHT22;32412;51.478;5.694;2023-11-21T18:50:08;6.80;99.90
46676;DHT22;32412;51.478;5.694;2023-11-21T18:52:36;6.80;99.90
46676;DHT22;32412;51.478;5.694;2023-11-21T18:55:01;6.80;99.90
46676;DHT22;32412;51.478;5.694;2023-11-21T18:57:28;6.70;99.90
46676;DHT22;32412;51.478;5.694;2023-11-21T18:59:53;6.70;99.90
46676;DHT22;32412;51.478;5.694;2023-11-21T19:02:19;6.70;99.90
46676;DHT22;32412;51.478;5.694;2023-11-21T19:04:45;6.60;99.90
46676;DHT22;32412;51.478;5.694;2023-11-21T19:07:10;6.60;99.90
46676;DHT22;32412;51.478;5.694;2023-11-21T19:09:36;6.60;99.90
46676;DHT22;32412;51.478;5.694;2023-11-21T19:12:03;6.50;99.90
46676;DHT22;32412;51.478;5.694;2023-11-21T19:14:29;6.50;99.90
46676;DHT22;32412;51.478;5.694;2023-11-21T19:16:55;6.40;99.90
46676;DHT22;32412;51.478;5.694;2023-11-21T19:19:23;6.40;99.90
46676;DHT22;32412;51.478;5.694;2023-11-21T19:21:49;6.40;99.90
46676;DHT22;32412;51.478;5.694;2023-11-21T19:24:15;6.30;99.90
46676;DHT22;32412;51.478;5.694;2023-11-21T19:26:45;6.30;99.90
46676;DHT22;32412;51.478;5.694;2023-11-21T19:29:11;6.30;99.90
46676;DHT22;32412;51.478;5.694;2023-11-21T19:31:37;6.20;99.90
46676;DHT22;32412;51.478;5.694;2023-11-21T19:34:03;6.20;99.90
46676;DHT22;32412;51.478;5.694;2023-11-21T19:37:04;6.10;99.90
46676;DHT22;32412;51.478;5.694;2023-11-21T19:39:59;6.10;99.90
46676;DHT22;32412;51.478;5.694;2023-11-21T19:42:25;6.10;99.90
46676;DHT22;32412;51.478;5.694;2023-11-21T19:44:50;6.00;99.90
46676;DHT22;32412;51.478;5.694;2023-11-21T19:47:16;6.00;99.90
46676;DHT22;32412;51.478;5.694;2023-11-21T19:49:43;5.90;99.90
46676;DHT22;32412;51.478;5.694;2023-11-21T19:52:08;5.90;99.90
46676;DHT22;32412;51.478;5.694;2023-11-21T19:54:35;5.90;99.90
46676;DHT22;32412;51.478;5.694;2023-11-21T19:57:01;5.90;99.90
46676;DHT22;32412;51.478;5.694;2023-11-21T19:59:30;5.90;99.90
46676;DHT22;32412;51.478;5.694;2023-11-21T20:01:56;5.90;99.90
46676;DHT22;32412;51.478;5.694;2023-11-21T20:04:21;5.80;99.90
46676;DHT22;32412;51.478;5.694;2023-11-21T20:06:48;5.80;99.90
46676;DHT22;32412;51.478;5.694;2023-11-21T20:09:16;5.80;99.90
46676;DHT22;32412;51.478;5.694;2023-11-21T20:11:42;5.80;99.90
46676;DHT22;32412;51.478;5.694;2023-11-21T20:14:08;5.80;99.90
46676;DHT22;32412;51.478;5.694;2023-11-21T20:16:39;5.80;99.90
46676;DHT22;32412;51.478;5.694;2023-11-21T20:19:05;5.80;99.90
46676;DHT22;32412;51.478;5.694;2023-11-21T20:21:33;5.70;99.90
46676;DHT22;32412;51.478;5.694;2023-11-21T20:23:59;5.70;99.90
46676;DHT22;32412;51.478;5.694;2023-11-21T20:26:25;5.60;99.90
46676;DHT22;32412;51.478;5.694;2023-11-21T20:28:52;5.60;99.90
46676;DHT22;32412;51.478;5.694;2023-11-21T20:31:19;5.60;99.90
46676;DHT22;32412;51.478;5.694;2023-11-21T20:33:45;5.50;99.90
46676;DHT22;32412;51.478;5.694;2023-11-21T20:36:10;5.50;99.90
46676;DHT22;32412;51.478;5.694;2023-11-21T20:38:36;5.50;99.90
46676;DHT22;32412;51.478;5.694;2023-11-21T20:41:05;5.50;99.90
46676;DHT22;32412;51.478;5.694;2023-11-21T20:43:32;5.40;99.90
46676;DHT22;32412;51.478;5.694;2023-11-21T20:45:58;5.40;99.90
46676;DHT22;32412;51.478;5.694;2023-11-21T20:48:26;5.50;99.90
46676;DHT22;32412;51.478;5.694;2023-11-21T20:51:00;5.50;99.90
46676;DHT22;32412;51.478;5.694;2023-11-21T20:59:55;5.30;99.90
46676;DHT22;32412;51.478;5.694;2023-11-21T21:02:21;5.40;99.90
46676;DHT22;32412;51.478;5.694;2023-11-21T21:04:47;5.40;99.90
46676;DHT22;32412;51.478;5.694;2023-11-21T21:10:17;5.30;99.90
46676;DHT22;32412;51.478;5.694;2023-11-21T21:15:24;5.30;99.90
46676;DHT22;32412;51.478;5.694;2023-11-21T21:18:09;5.30;99.90
46676;DHT22;32412;51.478;5.694;2023-11-21T21:20:40;5.30;99.90
46676;DHT22;32412;51.478;5.694;2023-11-21T22:00:12;5.00;99.90
